Time;durP1;ratioP1;P1;durP2;ratioP2;P2;SDS_P1;SDS_P2;PMS_P1;PMS_P2;Temp;Humidity;BMP_temperature;BMP_pressure;BME280_temperature;BME280_humidity;BME280_pressure;Samples;Min_cycle;Max_cycle;Signal;HPM_P1;HPM_P2
2022/10/19 00:01:10;;;;;;;35.28;21.48;;;;;;;;;;5071040;28;20040;-71
2022/10/19 00:04:14;;;;;;;34.10;21.88;;;;;;;;;;5070860;28;20059;-71
2022/10/19 00:07:19;;;;;;;40.58;23.83;;;;;;;;;;5071311;28;20048;-71
2022/10/19 00:10:23;;;;;;;34.08;21.65;;;;;;;;;;5070976;28;20510;-71
2022/10/19 00:13:28;;;;;;;31.38;21.15;;;;;;;;;;5071185;28;20047;-71
2022/10/19 00:16:34;;;;;;;35.08;21.52;;;;;;;;;;5071629;28;20383;-71
2022/10/19 00:19:38;;;;;;;32.83;20.90;;;;;;;;;;5070780;28;20043;-71
2022/10/19 00:22:42;;;;;;;31.02;20.95;;;;;;;;;;5070637;28;20044;-73
2022/10/19 00:25:56;;;;;;;35.70;20.40;;;;;;;;;;5070803;28;20511;-71
2022/10/19 00:29:00;;;;;;;32.72;19.90;;;;;;;;;;5070865;28;20047;-71
2022/10/19 00:32:05;;;;;;;29.13;19.55;;;;;;;;;;5070725;28;20511;-71
2022/10/19 00:35:09;;;;;;;32.05;21.42;;;;;;;;;;5070879;28;20396;-71
2022/10/19 00:38:14;;;;;;;34.40;20.35;;;;;;;;;;5070804;28;20395;-71
2022/10/19 00:41:19;;;;;;;30.45;20.83;;;;;;;;;;5070868;28;20056;-71
2022/10/19 00:44:28;;;;;;;34.38;21.98;;;;;;;;;;5070649;28;20047;-71
2022/10/19 00:47:33;;;;;;;34.72;22.65;;;;;;;;;;5071242;28;20048;-71
2022/10/19 00:50:38;;;;;;;36.63;22.10;;;;;;;;;;5071026;28;20044;-71
2022/10/19 00:53:42;;;;;;;33.95;22.52;;;;;;;;;;5070508;28;20036;-71
2022/10/19 00:56:48;;;;;;;34.08;21.67;;;;;;;;;;5070553;28;20052;-71
2022/10/19 00:59:52;;;;;;;32.25;21.42;;;;;;;;;;5070382;28;20043;-71
2022/10/19 01:02:57;;;;;;;31.58;21.08;;;;;;;;;;5070639;28;20044;-71
2022/10/19 01:06:02;;;;;;;37.13;22.90;;;;;;;;;;5070264;28;20056;-71
2022/10/19 01:09:07;;;;;;;38.75;22.45;;;;;;;;;;5070442;28;20035;-71
2022/10/19 01:12:23;;;;;;;37.97;23.00;;;;;;;;;;5071189;28;20051;-71
2022/10/19 01:15:34;;;;;;;39.08;23.10;;;;;;;;;;5070622;28;20043;-71
2022/10/19 01:18:56;;;;;;;39.33;24.65;;;;;;;;;;5070777;28;20047;-71
2022/10/19 01:22:03;;;;;;;42.00;25.45;;;;;;;;;;5074047;28;20044;-71
2022/10/19 01:25:10;;;;;;;41.33;25.02;;;;;;;;;;5073724;28;20407;-71
2022/10/19 01:28:23;;;;;;;30.08;21.63;;;;;;;;;;5073911;28;20044;-71
2022/10/19 01:31:48;;;;;;;41.30;23.33;;;;;;;;;;5073513;28;20055;-71
2022/10/19 01:35:10;;;;;;;44.88;25.50;;;;;;;;;;5073959;28;20040;-71
2022/10/19 01:38:27;;;;;;;34.03;22.52;;;;;;;;;;5061310;28;20039;-70
2022/10/19 01:41:35;;;;;;;32.30;20.73;;;;;;;;;;5073527;28;20040;-71
2022/10/19 01:45:06;;;;;;;31.13;21.90;;;;;;;;;;5073526;28;20118;-71
2022/10/19 01:48:12;;;;;;;35.55;21.55;;;;;;;;;;5068729;28;20043;-71
2022/10/19 01:51:22;;;;;;;32.58;20.45;;;;;;;;;;5073344;28;20048;-71
2022/10/19 01:54:29;;;;;;;32.97;21.45;;;;;;;;;;5073430;28;20039;-71
2022/10/19 01:57:36;;;;;;;28.20;20.52;;;;;;;;;;5073540;28;20047;-71
2022/10/19 02:00:41;;;;;;;31.63;19.20;;;;;;;;;;5072615;28;20043;-71
2022/10/19 02:03:46;;;;;;;31.52;20.27;;;;;;;;;;5073392;28;20051;-71
2022/10/19 02:06:54;;;;;;;35.72;21.35;;;;;;;;;;5072970;28;20051;-70
2022/10/19 02:09:58;;;;;;;28.15;20.00;;;;;;;;;;5073018;28;20051;-70
2022/10/19 02:13:04;;;;;;;32.20;20.75;;;;;;;;;;5072932;28;20044;-71
2022/10/19 02:16:12;;;;;;;36.17;23.33;;;;;;;;;;5072928;28;20047;-71
2022/10/19 02:19:17;;;;;;;36.25;23.40;;;;;;;;;;5073026;28;20250;-70
2022/10/19 02:22:22;;;;;;;36.60;23.30;;;;;;;;;;5072646;28;20047;-71
2022/10/19 02:25:26;;;;;;;36.28;23.40;;;;;;;;;;5072780;28;20059;-71
2022/10/19 02:28:30;;;;;;;31.00;19.95;;;;;;;;;;5073018;28;20535;-71
2022/10/19 02:31:35;;;;;;;29.98;19.98;;;;;;;;;;5071771;28;20416;-71
2022/10/19 02:34:39;;;;;;;28.58;20.13;;;;;;;;;;5072774;28;20040;-71
2022/10/19 02:37:43;;;;;;;33.20;20.35;;;;;;;;;;5072635;28;20055;-71
2022/10/19 02:40:58;;;;;;;28.55;19.33;;;;;;;;;;5072585;28;20043;-71
2022/10/19 02:44:07;;;;;;;36.05;19.02;;;;;;;;;;5072641;28;20055;-71
2022/10/19 02:47:16;;;;;;;29.67;18.65;;;;;;;;;;5072188;28;20396;-71
2022/10/19 02:50:21;;;;;;;24.42;17.52;;;;;;;;;;5072038;28;20047;-71
2022/10/19 02:53:26;;;;;;;30.35;18.75;;;;;;;;;;5072290;28;20051;-71
2022/10/19 02:56:30;;;;;;;37.15;19.05;;;;;;;;;;5071902;28;20044;-70
2022/10/19 02:59:34;;;;;;;29.77;18.25;;;;;;;;;;5070921;28;20052;-71
2022/10/19 03:02:38;;;;;;;27.05;18.23;;;;;;;;;;5071856;28;20506;-71
2022/10/19 03:05:43;;;;;;;30.13;17.70;;;;;;;;;;5072102;28;20048;-71
2022/10/19 03:08:47;;;;;;;33.72;19.88;;;;;;;;;;5072112;28;20494;-71
2022/10/19 03:11:51;;;;;;;32.78;18.55;;;;;;;;;;5072022;28;20399;-71
2022/10/19 03:14:56;;;;;;;36.17;20.75;;;;;;;;;;5071808;28;20043;-71
2022/10/19 03:18:00;;;;;;;34.55;20.65;;;;;;;;;;5071688;28;20050;-71
2022/10/19 03:21:09;;;;;;;32.63;21.10;;;;;;;;;;5071649;28;20059;-71
2022/10/19 03:24:13;;;;;;;32.10;20.52;;;;;;;;;;5075558;28;20056;-71
2022/10/19 03:27:17;;;;;;;34.30;20.67;;;;;;;;;;5080180;28;20119;-71
2022/10/19 03:30:22;;;;;;;31.13;20.52;;;;;;;;;;5079545;28;20071;-70
2022/10/19 03:33:26;;;;;;;31.63;20.33;;;;;;;;;;5080454;28;20483;-70
2022/10/19 03:36:32;;;;;;;35.85;20.45;;;;;;;;;;5076190;28;20047;-71
2022/10/19 03:39:36;;;;;;;34.70;21.83;;;;;;;;;;5071539;28;20039;-70
2022/10/19 03:42:40;;;;;;;31.20;20.30;;;;;;;;;;5071340;28;20051;-70
2022/10/19 03:45:46;;;;;;;30.17;20.92;;;;;;;;;;5071745;28;20060;-71
2022/10/19 03:48:50;;;;;;;33.83;20.15;;;;;;;;;;5071555;28;20376;-71
2022/10/19 03:51:54;;;;;;;31.50;20.52;;;;;;;;;;5071173;28;20043;-71
2022/10/19 03:54:58;;;;;;;34.00;18.98;;;;;;;;;;5071025;28;20475;-71
2022/10/19 03:58:03;;;;;;;31.10;18.83;;;;;;;;;;5071486;28;20157;-71
2022/10/19 04:01:15;;;;;;;33.25;18.77;;;;;;;;;;5071173;28;20051;-71
2022/10/19 04:04:19;;;;;;;35.75;18.15;;;;;;;;;;5070769;28;20051;-71
2022/10/19 04:07:23;;;;;;;28.58;19.00;;;;;;;;;;5071099;28;20047;-71
2022/10/19 04:10:27;;;;;;;27.33;17.77;;;;;;;;;;5071101;28;20044;-70
2022/10/19 04:13:32;;;;;;;33.67;18.25;;;;;;;;;;5070936;28;20059;-71
2022/10/19 04:16:36;;;;;;;32.67;18.73;;;;;;;;;;5070989;28;20527;-70
2022/10/19 04:19:41;;;;;;;38.78;19.40;;;;;;;;;;5071060;28;20055;-71
2022/10/19 04:22:45;;;;;;;27.92;16.77;;;;;;;;;;5070907;28;20044;-70
2022/10/19 04:25:49;;;;;;;28.38;17.88;;;;;;;;;;5070600;28;20051;-71
2022/10/19 04:28:54;;;;;;;34.22;18.65;;;;;;;;;;5070674;28;20039;-71
2022/10/19 04:31:58;;;;;;;30.50;18.42;;;;;;;;;;5070766;28;20396;-71
2022/10/19 04:35:02;;;;;;;28.80;17.98;;;;;;;;;;5070459;28;20063;-71
2022/10/19 04:38:07;;;;;;;32.45;18.77;;;;;;;;;;5070815;28;20067;-71
2022/10/19 04:41:12;;;;;;;26.77;19.38;;;;;;;;;;5069817;28;20052;-70
2022/10/19 04:44:16;;;;;;;32.13;18.40;;;;;;;;;;5070609;28;20063;-71
2022/10/19 04:47:20;;;;;;;38.10;19.58;;;;;;;;;;5070478;28;20055;-72
2022/10/19 04:50:25;;;;;;;47.28;21.75;;;;;;;;;;5070487;28;20063;-71
2022/10/19 04:53:33;;;;;;;35.28;21.65;;;;;;;;;;5071239;28;20055;-71
2022/10/19 04:56:39;;;;;;;34.63;21.10;;;;;;;;;;5074618;28;20035;-71
2022/10/19 04:59:43;;;;;;;38.13;21.77;;;;;;;;;;5074546;28;20051;-71
2022/10/19 05:02:47;;;;;;;33.75;20.27;;;;;;;;;;5074498;28;20048;-71
2022/10/19 05:05:51;;;;;;;33.33;20.48;;;;;;;;;;5074099;28;20056;-71
2022/10/19 05:08:56;;;;;;;49.97;24.27;;;;;;;;;;5074378;28;20427;-71
2022/10/19 05:12:00;;;;;;;40.80;21.70;;;;;;;;;;5074123;28;20515;-71
2022/10/19 05:15:05;;;;;;;41.05;22.58;;;;;;;;;;5074007;28;20039;-71
2022/10/19 05:18:09;;;;;;;51.33;22.60;;;;;;;;;;5074283;28;20503;-73
2022/10/19 05:21:14;;;;;;;39.63;21.30;;;;;;;;;;5073767;28;20043;-73
2022/10/19 05:24:18;;;;;;;40.45;22.65;;;;;;;;;;5073904;28;20056;-73
2022/10/19 05:27:22;;;;;;;33.33;21.63;;;;;;;;;;5074127;28;20511;-73
2022/10/19 05:30:26;;;;;;;45.88;22.33;;;;;;;;;;5073614;28;20075;-74
2022/10/19 05:33:30;;;;;;;47.47;22.42;;;;;;;;;;5073713;28;20578;-73
2022/10/19 05:36:36;;;;;;;41.38;22.25;;;;;;;;;;5073414;28;20044;-72
2022/10/19 05:39:40;;;;;;;65.63;23.65;;;;;;;;;;5073470;28;20035;-73
2022/10/19 05:42:45;;;;;;;44.20;22.77;;;;;;;;;;5073605;28;20054;-73
2022/10/19 05:45:49;;;;;;;54.65;24.05;;;;;;;;;;5073170;28;20412;-73
2022/10/19 05:48:54;;;;;;;45.17;23.58;;;;;;;;;;5072759;28;20043;-75
2022/10/19 05:51:58;;;;;;;38.72;22.05;;;;;;;;;;5073017;28;20043;-73
2022/10/19 05:55:03;;;;;;;38.95;22.83;;;;;;;;;;5072955;28;20035;-73
2022/10/19 05:58:07;;;;;;;47.83;24.85;;;;;;;;;;5073213;28;20408;-73
2022/10/19 06:01:13;;;;;;;54.88;26.02;;;;;;;;;;5073116;28;20040;-73
2022/10/19 06:04:17;;;;;;;44.75;23.52;;;;;;;;;;5072812;28;20388;-74
2022/10/19 06:07:21;;;;;;;52.75;22.05;;;;;;;;;;5071820;28;20530;-73
2022/10/19 06:10:25;;;;;;;44.25;21.40;;;;;;;;;;5072556;28;20052;-74
2022/10/19 06:13:31;;;;;;;35.60;20.65;;;;;;;;;;5072154;28;20044;-73
2022/10/19 06:16:35;;;;;;;47.03;18.58;;;;;;;;;;5070218;28;20551;-73
2022/10/19 06:19:40;;;;;;;68.80;21.98;;;;;;;;;;5072480;28;20380;-73
2022/10/19 06:22:44;;;;;;;55.33;22.27;;;;;;;;;;5072738;28;20047;-76
2022/10/19 06:25:48;;;;;;;36.53;20.80;;;;;;;;;;5072595;28;20051;-75
2022/10/19 06:28:59;;;;;;;34.63;19.30;;;;;;;;;;5073011;28;20436;-75
2022/10/19 06:32:03;;;;;;;32.30;19.52;;;;;;;;;;5071728;28;20047;-75
2022/10/19 06:35:07;;;;;;;39.25;19.55;;;;;;;;;;5072580;28;20052;-75
2022/10/19 06:38:12;;;;;;;31.58;19.23;;;;;;;;;;5072412;28;20507;-75
2022/10/19 06:41:17;;;;;;;56.35;20.48;;;;;;;;;;5073110;28;20051;-76
2022/10/19 06:44:21;;;;;;;39.30;18.20;;;;;;;;;;5071348;28;20487;-74
2022/10/19 06:47:30;;;;;;;39.45;19.33;;;;;;;;;;5072308;28;20403;-75
2022/10/19 06:50:34;;;;;;;36.42;20.77;;;;;;;;;;5072250;28;20506;-75
2022/10/19 06:53:38;;;;;;;75.47;62.95;;;;;;;;;;5072260;28;20047;-74
2022/10/19 06:56:43;;;;;;;41.38;24.92;;;;;;;;;;5072184;28;20047;-75
2022/10/19 06:59:47;;;;;;;38.40;21.13;;;;;;;;;;5072163;28;20047;-75
2022/10/19 07:02:52;;;;;;;42.78;22.77;;;;;;;;;;5071102;28;20075;-75
2022/10/19 07:05:57;;;;;;;35.30;21.27;;;;;;;;;;5071722;28;20047;-74
2022/10/19 07:09:01;;;;;;;36.45;21.15;;;;;;;;;;5071619;28;20044;-74
2022/10/19 07:12:07;;;;;;;39.08;22.17;;;;;;;;;;5071655;28;20051;-74
2022/10/19 07:15:11;;;;;;;37.65;21.38;;;;;;;;;;5071232;28;20392;-74
2022/10/19 07:18:16;;;;;;;46.55;23.13;;;;;;;;;;5071522;28;20040;-74
2022/10/19 07:21:21;;;;;;;37.25;20.48;;;;;;;;;;5071394;28;20043;-74
2022/10/19 07:24:26;;;;;;;33.78;20.98;;;;;;;;;;5071482;28;20044;-76
2022/10/19 07:27:30;;;;;;;42.28;23.83;;;;;;;;;;5071739;28;20040;-75
2022/10/19 07:30:37;;;;;;;33.20;20.88;;;;;;;;;;5070337;28;20055;-73
2022/10/19 07:33:41;;;;;;;41.25;22.67;;;;;;;;;;5071356;28;20044;-74
2022/10/19 07:36:46;;;;;;;29.30;17.55;;;;;;;;;;5071477;28;20039;-73
2022/10/19 07:39:51;;;;;;;27.40;17.63;;;;;;;;;;5071381;28;20051;-73
2022/10/19 07:42:55;;;;;;;32.95;17.90;;;;;;;;;;5071029;28;20075;-74
2022/10/19 07:46:03;;;;;;;26.50;18.02;;;;;;;;;;5071050;28;20043;-75
2022/10/19 07:49:11;;;;;;;35.22;20.23;;;;;;;;;;5070537;28;20399;-74
2022/10/19 07:52:15;;;;;;;24.63;16.83;;;;;;;;;;5070655;28;20043;-74
2022/10/19 07:55:20;;;;;;;34.45;17.15;;;;;;;;;;5070077;28;20051;-74
2022/10/19 07:58:24;;;;;;;27.92;15.65;;;;;;;;;;5071184;28;20503;-73
2022/10/19 08:01:30;;;;;;;29.92;17.08;;;;;;;;;;5070837;28;20048;-75
2022/10/19 08:04:35;;;;;;;24.00;17.08;;;;;;;;;;5070943;28;20059;-75
2022/10/19 08:07:40;;;;;;;28.05;16.80;;;;;;;;;;5070196;28;20039;-75
2022/10/19 08:10:44;;;;;;;27.27;14.50;;;;;;;;;;5070775;28;20538;-75
2022/10/19 08:13:49;;;;;;;30.33;19.40;;;;;;;;;;5070723;28;20058;-74
2022/10/19 08:16:53;;;;;;;34.50;23.17;;;;;;;;;;5070055;28;20059;-76
2022/10/19 08:19:57;;;;;;;32.40;17.92;;;;;;;;;;5070851;28;20043;-75
2022/10/19 08:23:01;;;;;;;35.03;18.48;;;;;;;;;;5070926;28;20063;-75
2022/10/19 08:26:05;;;;;;;27.73;18.23;;;;;;;;;;5070114;28;20052;-73
2022/10/19 08:29:11;;;;;;;33.33;19.90;;;;;;;;;;5071115;28;20043;-74
2022/10/19 08:32:16;;;;;;;38.15;21.95;;;;;;;;;;5074993;28;20055;-75
2022/10/19 08:35:20;;;;;;;35.85;19.73;;;;;;;;;;5074672;28;20047;-75
2022/10/19 08:38:25;;;;;;;29.55;19.23;;;;;;;;;;5074822;28;20047;-73
2022/10/19 08:41:42;;;;;;;30.50;19.90;;;;;;;;;;5074596;28;20044;-73
2022/10/19 08:44:49;;;;;;;34.78;19.45;;;;;;;;;;5074262;28;20040;-73
2022/10/19 08:47:53;;;;;;;29.90;19.70;;;;;;;;;;5075396;28;20074;-73
2022/10/19 08:50:58;;;;;;;29.00;19.00;;;;;;;;;;5074607;28;20047;-73
2022/10/19 08:54:10;;;;;;;32.58;20.27;;;;;;;;;;5074424;28;20048;-73
2022/10/19 08:57:30;;;;;;;28.23;18.48;;;;;;;;;;5074221;28;20063;-73
2022/10/19 09:00:35;;;;;;;30.63;19.63;;;;;;;;;;5074163;28;20040;-75
2022/10/19 09:03:51;;;;;;;33.70;22.80;;;;;;;;;;5074582;28;20051;-75
2022/10/19 09:07:14;;;;;;;39.35;23.42;;;;;;;;;;5073535;28;20059;-75
2022/10/19 09:10:23;;;;;;;32.25;22.50;;;;;;;;;;5074451;28;20043;-74
2022/10/19 09:13:27;;;;;;;34.08;19.92;;;;;;;;;;5074100;28;20106;-74
2022/10/19 09:16:33;;;;;;;32.95;22.13;;;;;;;;;;5074156;28;20047;-74
2022/10/19 09:19:38;;;;;;;27.00;16.48;;;;;;;;;;5073812;28;20043;-74
2022/10/19 09:22:43;;;;;;;38.08;21.52;;;;;;;;;;5072791;28;20073;-74
2022/10/19 09:25:48;;;;;;;37.42;23.65;;;;;;;;;;5073474;28;20063;-74
2022/10/19 09:28:52;;;;;;;27.33;19.17;;;;;;;;;;5073969;28;20040;-74
2022/10/19 09:31:58;;;;;;;31.65;20.42;;;;;;;;;;5073839;28;20052;-74
2022/10/19 09:35:05;;;;;;;30.35;18.02;;;;;;;;;;5073732;28;20035;-74
2022/10/19 09:38:11;;;;;;;23.25;17.08;;;;;;;;;;5076472;28;20048;-74
2022/10/19 09:41:17;;;;;;;19.98;13.40;;;;;;;;;;5073585;28;20052;-74
2022/10/19 09:44:22;;;;;;;22.42;14.75;;;;;;;;;;5073504;28;20055;-74
2022/10/19 09:47:30;;;;;;;32.05;19.50;;;;;;;;;;5073181;28;20506;-74
2022/10/19 09:50:34;;;;;;;29.63;19.67;;;;;;;;;;5073324;28;20044;-75
2022/10/19 09:53:44;;;;;;;26.23;14.52;;;;;;;;;;5073561;28;20043;-75
2022/10/19 09:56:52;;;;;;;24.55;13.80;;;;;;;;;;5073581;28;20050;-75
2022/10/19 09:59:58;;;;;;;19.92;14.00;;;;;;;;;;5073261;28;20047;-75
2022/10/19 10:03:02;;;;;;;17.15;12.68;;;;;;;;;;5073344;28;20051;-75
2022/10/19 10:06:08;;;;;;;27.48;15.65;;;;;;;;;;5072725;28;20063;-72
2022/10/19 10:09:16;;;;;;;27.70;16.88;;;;;;;;;;5073061;28;20056;-74
2022/10/19 10:12:22;;;;;;;19.17;13.40;;;;;;;;;;5073654;28;20047;-74
2022/10/19 10:15:27;;;;;;;18.95;12.85;;;;;;;;;;5072533;28;20047;-75
2022/10/19 10:18:36;;;;;;;20.50;13.75;;;;;;;;;;5072768;28;20044;-74
2022/10/19 10:21:48;;;;;;;20.65;12.55;;;;;;;;;;5072318;28;20384;-73
2022/10/19 10:24:53;;;;;;;54.33;16.67;;;;;;;;;;5072418;28;20051;-75
2022/10/19 10:27:59;;;;;;;17.83;11.80;;;;;;;;;;5072645;28;20043;-75
2022/10/19 10:31:07;;;;;;;13.35;10.32;;;;;;;;;;5072295;28;20072;-75
2022/10/19 10:34:16;;;;;;;16.20;11.00;;;;;;;;;;5072131;28;20435;-78
2022/10/19 10:37:27;;;;;;;19.00;10.43;;;;;;;;;;5072419;28;20047;-76
2022/10/19 10:40:32;;;;;;;14.02;9.02;;;;;;;;;;5071360;28;20040;-75
2022/10/19 10:43:48;;;;;;;14.75;11.32;;;;;;;;;;5070123;28;20055;-77
2022/10/19 10:46:52;;;;;;;19.83;10.98;;;;;;;;;;5070615;28;20067;-79
2022/10/19 10:50:00;;;;;;;20.38;10.38;;;;;;;;;;5070464;28;20039;-76
2022/10/19 10:53:05;;;;;;;15.25;9.70;;;;;;;;;;5069617;28;20051;-77
2022/10/19 10:56:27;;;;;;;13.82;9.38;;;;;;;;;;5071929;28;20573;-77
2022/10/19 10:59:34;;;;;;;20.17;11.43;;;;;;;;;;5072114;28;20047;-77
2022/10/19 11:02:45;;;;;;;15.63;9.60;;;;;;;;;;5071351;28;20051;-77
2022/10/19 11:05:52;;;;;;;16.63;9.70;;;;;;;;;;5071354;28;20530;-76
2022/10/19 11:08:57;;;;;;;17.65;9.95;;;;;;;;;;5071088;28;20036;-76
2022/10/19 11:12:03;;;;;;;16.23;9.35;;;;;;;;;;5071732;28;20045;-77
2022/10/19 11:15:14;;;;;;;13.95;8.45;;;;;;;;;;5071940;28;20504;-75
2022/10/19 11:18:18;;;;;;;;;;;;;;;;;;5072568;28;20437;-76
2022/10/19 11:21:22;;;;;;;14.50;7.53;;;;;;;;;;5071125;28;19931;-76
2022/10/19 11:24:26;;;;;;;11.32;8.02;;;;;;;;;;5071533;28;20502;-76
2022/10/19 11:27:40;;;;;;;10.00;7.97;;;;;;;;;;5071459;28;20059;-77
2022/10/19 11:31:03;;;;;;;14.00;8.68;;;;;;;;;;5071094;28;20051;-76
2022/10/19 11:34:13;;;;;;;11.77;7.25;;;;;;;;;;5070550;28;20041;-76
2022/10/19 11:37:20;;;;;;;11.77;7.43;;;;;;;;;;5071303;28;20051;-77
2022/10/19 11:40:34;;;;;;;10.10;7.18;;;;;;;;;;5071353;28;20047;-76
2022/10/19 11:43:44;;;;;;;11.50;7.03;;;;;;;;;;5071688;28;20041;-77
2022/10/19 11:46:48;;;;;;;10.27;7.53;;;;;;;;;;5071068;28;20041;-77
2022/10/19 11:49:53;;;;;;;11.18;6.97;;;;;;;;;;5071348;28;20045;-76
2022/10/19 11:52:57;;;;;;;19.90;9.25;;;;;;;;;;5071243;28;20043;-77
2022/10/19 11:56:01;;;;;;;10.90;7.50;;;;;;;;;;5071031;28;20040;-76
2022/10/19 11:59:14;;;;;;;8.43;7.03;;;;;;;;;;5071337;28;20049;-76
2022/10/19 12:02:27;;;;;;;9.40;6.50;;;;;;;;;;5071523;28;20040;-75
2022/10/19 12:05:38;;;;;;;12.68;6.20;;;;;;;;;;5069366;28;20044;-76
2022/10/19 12:08:50;;;;;;;9.60;5.93;;;;;;;;;;5071115;28;20024;-76
2022/10/19 12:12:15;;;;;;;12.38;6.90;;;;;;;;;;5070662;28;20041;-76
2022/10/19 12:15:22;;;;;;;13.88;7.22;;;;;;;;;;5070909;28;20597;-76
2022/10/19 12:18:30;;;;;;;9.45;6.55;;;;;;;;;;5070711;28;20048;-75
2022/10/19 12:21:37;;;;;;;14.05;7.40;;;;;;;;;;5069781;28;20377;-75
2022/10/19 12:24:41;;;;;;;9.18;6.50;;;;;;;;;;5070702;28;20044;-75
2022/10/19 12:27:47;;;;;;;11.45;7.05;;;;;;;;;;5070904;28;20044;-75
2022/10/19 12:30:52;;;;;;;11.65;6.57;;;;;;;;;;5070526;28;20203;-75
2022/10/19 12:33:59;;;;;;;11.07;6.97;;;;;;;;;;5069388;28;20040;-75
2022/10/19 12:37:30;;;;;;;10.10;6.45;;;;;;;;;;5070604;28;20511;-75
2022/10/19 12:40:45;;;;;;;10.13;7.03;;;;;;;;;;5070367;28;20618;-74
2022/10/19 12:44:01;;;;;;;9.60;6.35;;;;;;;;;;5070494;28;20282;-75
2022/10/19 12:47:15;;;;;;;13.40;6.50;;;;;;;;;;5070869;28;20049;-75
2022/10/19 12:50:39;;;;;;;11.10;6.63;;;;;;;;;;5070559;28;20040;-75
2022/10/19 12:53:48;;;;;;;10.57;6.78;;;;;;;;;;5070633;28;20041;-74
2022/10/19 12:56:54;;;;;;;11.23;7.22;;;;;;;;;;5070650;28;20503;-75
2022/10/19 13:00:04;;;;;;;10.90;6.03;;;;;;;;;;5070529;28;20049;-75
2022/10/19 13:03:15;;;;;;;10.80;6.43;;;;;;;;;;5070568;28;20040;-75
2022/10/19 13:06:23;;;;;;;9.52;5.93;;;;;;;;;;5070345;28;20041;-74
2022/10/19 13:09:30;;;;;;;9.02;5.70;;;;;;;;;;5070171;28;20037;-74
2022/10/19 13:12:43;;;;;;;9.82;5.05;;;;;;;;;;5070396;28;20041;-75
2022/10/19 13:15:47;;;;;;;11.25;6.05;;;;;;;;;;5071430;28;20033;-74
2022/10/19 13:19:10;;;;;;;9.18;6.03;;;;;;;;;;5074151;28;20029;-74
2022/10/19 13:22:28;;;;;;;10.55;5.97;;;;;;;;;;5073919;28;20036;-75
2022/10/19 13:25:32;;;;;;;10.55;6.32;;;;;;;;;;5073605;28;20049;-74
2022/10/19 13:28:37;;;;;;;8.77;5.88;;;;;;;;;;5073970;28;20036;-74
2022/10/19 13:31:42;;;;;;;7.63;5.93;;;;;;;;;;5073481;28;20048;-74
2022/10/19 13:34:46;;;;;;;7.68;5.55;;;;;;;;;;5073693;28;20128;-74
2022/10/19 13:38:10;;;;;;;9.80;6.95;;;;;;;;;;5073542;28;20377;-75
2022/10/19 13:41:14;;;;;;;7.63;5.78;;;;;;;;;;5073502;28;20036;-74
2022/10/19 13:44:20;;;;;;;9.10;6.13;;;;;;;;;;5073357;28;20045;-74
2022/10/19 13:47:33;;;;;;;9.80;6.57;;;;;;;;;;5072927;28;20237;-74
2022/10/19 13:50:53;;;;;;;9.93;6.25;;;;;;;;;;5073288;28;20037;-73
2022/10/19 13:54:04;;;;;;;11.88;8.93;;;;;;;;;;5072970;28;20029;-73
2022/10/19 13:57:17;;;;;;;12.65;9.27;;;;;;;;;;5073034;28;20040;-74
2022/10/19 14:00:23;;;;;;;19.40;13.65;;;;;;;;;;5073565;28;20380;-74
2022/10/19 14:03:42;;;;;;;22.38;11.05;;;;;;;;;;5073289;28;20035;-75
2022/10/19 14:06:49;;;;;;;13.48;9.98;;;;;;;;;;5073018;28;20055;-77
2022/10/19 14:10:02;;;;;;;19.05;12.25;;;;;;;;;;5072890;28;20495;-74
2022/10/19 14:13:11;;;;;;;21.20;13.40;;;;;;;;;;5073203;28;20392;-78
2022/10/19 14:16:19;;;;;;;17.90;11.77;;;;;;;;;;5072765;28;20059;-76
2022/10/19 14:19:26;;;;;;;14.05;9.63;;;;;;;;;;5072713;28;20051;-74
2022/10/19 14:22:35;;;;;;;18.67;11.48;;;;;;;;;;5071646;28;20335;-75
2022/10/19 14:25:39;;;;;;;18.63;10.65;;;;;;;;;;5071440;28;20056;-75
2022/10/19 14:28:43;;;;;;;14.02;9.70;;;;;;;;;;5070819;28;20039;-77
2022/10/19 14:31:48;;;;;;;16.25;10.02;;;;;;;;;;5071745;28;20048;-76
2022/10/19 14:34:53;;;;;;;24.95;14.50;;;;;;;;;;5071392;28;20526;-78
2022/10/19 14:37:57;;;;;;;21.73;13.13;;;;;;;;;;5072213;28;20534;-78
2022/10/19 14:41:02;;;;;;;21.45;13.93;;;;;;;;;;5071884;28;20522;-81
2022/10/19 14:44:27;;;;;;;19.70;12.13;;;;;;;;;;5072801;28;20064;-79
2022/10/19 14:47:32;;;;;;;17.38;11.02;;;;;;;;;;5073814;28;20515;-82
2022/10/19 14:50:39;;;;;;;18.42;12.57;;;;;;;;;;5072675;28;20052;-77
2022/10/19 14:53:44;;;;;;;17.67;11.82;;;;;;;;;;5072281;28;20746;-73
2022/10/19 14:56:51;;;;;;;22.05;14.38;;;;;;;;;;5072441;28;20507;-75
2022/10/19 14:59:57;;;;;;;21.98;13.90;;;;;;;;;;5072370;28;20051;-75
2022/10/19 15:03:06;;;;;;;25.77;14.40;;;;;;;;;;5072213;28;20052;-76
2022/10/19 15:06:41;;;;;;;22.98;14.88;;;;;;;;;;5072470;28;20052;-76
2022/10/19 15:09:56;;;;;;;30.52;18.83;;;;;;;;;;5072274;28;20392;-76
2022/10/19 15:13:05;;;;;;;20.27;13.98;;;;;;;;;;5071957;28;20067;-73
2022/10/19 15:16:29;;;;;;;22.88;16.35;;;;;;;;;;5071861;28;20047;-75
2022/10/19 15:19:39;;;;;;;26.02;17.02;;;;;;;;;;5071677;28;20059;-76
2022/10/19 15:22:43;;;;;;;24.88;15.27;;;;;;;;;;5072144;28;20036;-75
2022/10/19 15:25:58;;;;;;;18.30;13.65;;;;;;;;;;5071813;28;20039;-76
2022/10/19 15:29:09;;;;;;;27.65;16.90;;;;;;;;;;5071545;28;20051;-74
2022/10/19 15:32:31;;;;;;;36.35;22.10;;;;;;;;;;5071571;28;20056;-72
2022/10/19 15:35:36;;;;;;;26.60;16.85;;;;;;;;;;5071271;28;20047;-74
2022/10/19 15:38:40;;;;;;;30.08;20.25;;;;;;;;;;5071369;28;20051;-75
2022/10/19 15:41:45;;;;;;;33.17;20.65;;;;;;;;;;5071189;28;20035;-75
2022/10/19 15:44:50;;;;;;;31.50;21.15;;;;;;;;;;5071339;28;20097;-76
2022/10/19 15:48:10;;;;;;;36.65;22.13;;;;;;;;;;5071772;28;20063;-76
2022/10/19 15:51:27;;;;;;;34.42;20.38;;;;;;;;;;5077564;28;20040;-74
2022/10/19 15:54:31;;;;;;;33.00;22.00;;;;;;;;;;5079251;28;20055;-73
2022/10/19 15:57:36;;;;;;;27.10;19.20;;;;;;;;;;5079914;28;20055;-73
2022/10/19 16:00:41;;;;;;;37.17;22.42;;;;;;;;;;5079317;28;20043;-73
2022/10/19 16:03:46;;;;;;;33.53;23.00;;;;;;;;;;5078948;28;20044;-78
2022/10/19 16:06:50;;;;;;;37.45;23.40;;;;;;;;;;5071592;28;20411;-74
2022/10/19 16:09:54;;;;;;;33.90;24.30;;;;;;;;;;5071519;28;20494;-73
2022/10/19 16:12:58;;;;;;;39.47;22.70;;;;;;;;;;5071231;28;20051;-73
2022/10/19 16:16:04;;;;;;;39.08;23.92;;;;;;;;;;5070079;28;20043;-72
2022/10/19 16:19:09;;;;;;;41.15;24.58;;;;;;;;;;5071050;28;20060;-74
2022/10/19 16:22:14;;;;;;;45.47;26.33;;;;;;;;;;5070980;28;20043;-74
2022/10/19 16:25:18;;;;;;;49.33;28.35;;;;;;;;;;5069661;28;20070;-74
2022/10/19 16:28:22;;;;;;;48.60;29.15;;;;;;;;;;5070757;28;20420;-75
2022/10/19 16:31:27;;;;;;;47.05;28.42;;;;;;;;;;5070186;28;20068;-77
2022/10/19 16:34:31;;;;;;;44.70;28.15;;;;;;;;;;5070607;28;20043;-75
2022/10/19 16:37:35;;;;;;;46.15;28.38;;;;;;;;;;5070887;28;20039;-74
2022/10/19 16:40:40;;;;;;;51.03;30.85;;;;;;;;;;5070717;28;20048;-74
2022/10/19 16:43:46;;;;;;;52.50;31.00;;;;;;;;;;5070386;28;20103;-72
2022/10/19 16:46:51;;;;;;;62.05;31.88;;;;;;;;;;5070261;28;20075;-73
2022/10/19 16:49:57;;;;;;;57.60;32.05;;;;;;;;;;5070895;28;20044;-75
2022/10/19 16:53:09;;;;;;;58.47;33.20;;;;;;;;;;5074698;28;20047;-76
2022/10/19 16:56:13;;;;;;;65.03;30.75;;;;;;;;;;5074333;28;20040;-75
2022/10/19 16:59:17;;;;;;;55.75;30.73;;;;;;;;;;5074494;28;20050;-74
2022/10/19 17:02:22;;;;;;;55.90;31.90;;;;;;;;;;5074152;28;20042;-77
2022/10/19 17:05:26;;;;;;;59.53;32.35;;;;;;;;;;5074262;28;20051;-76
2022/10/19 17:08:31;;;;;;;60.08;32.30;;;;;;;;;;5073130;28;20047;-74
2022/10/19 17:11:36;;;;;;;69.10;32.75;;;;;;;;;;5074243;28;20048;-74
2022/10/19 17:14:41;;;;;;;58.17;33.13;;;;;;;;;;5073798;28;20043;-74
2022/10/19 17:17:45;;;;;;;57.97;33.08;;;;;;;;;;5073615;28;20044;-73
2022/10/19 17:20:50;;;;;;;61.55;32.65;;;;;;;;;;5074278;28;20055;-71
2022/10/19 17:23:55;;;;;;;63.05;34.15;;;;;;;;;;5073264;28;20043;-71
2022/10/19 17:27:01;;;;;;;59.58;32.65;;;;;;;;;;5073749;28;20059;-72
2022/10/19 17:30:06;;;;;;;63.72;33.47;;;;;;;;;;5072542;28;20289;-72
2022/10/19 17:33:10;;;;;;;58.83;33.78;;;;;;;;;;5073550;28;20048;-72
2022/10/19 17:36:15;;;;;;;63.85;34.78;;;;;;;;;;5073594;28;20048;-71
2022/10/19 17:39:21;;;;;;;70.10;38.85;;;;;;;;;;5072808;28;20067;-73
2022/10/19 17:42:25;;;;;;;63.97;38.50;;;;;;;;;;5073172;28;20388;-73
2022/10/19 17:45:30;;;;;;;67.47;38.13;;;;;;;;;;5072263;28;20051;-73
2022/10/19 17:48:35;;;;;;;66.57;37.42;;;;;;;;;;5072824;28;20094;-73
2022/10/19 17:51:40;;;;;;;75.57;37.35;;;;;;;;;;5073003;28;20048;-73
2022/10/19 17:54:44;;;;;;;61.30;36.53;;;;;;;;;;5072438;28;20039;-73
2022/10/19 17:57:48;;;;;;;69.15;40.22;;;;;;;;;;5073410;28;20039;-73
2022/10/19 18:00:53;;;;;;;88.25;39.10;;;;;;;;;;5073332;28;20499;-73
2022/10/19 18:03:57;;;;;;;68.70;38.78;;;;;;;;;;5072890;28;20051;-73
2022/10/19 18:07:02;;;;;;;64.03;39.80;;;;;;;;;;5072957;28;20262;-73
2022/10/19 18:10:06;;;;;;;73.80;40.50;;;;;;;;;;5073098;28;20056;-73
2022/10/19 18:13:10;;;;;;;66.70;39.83;;;;;;;;;;5072849;28;20055;-73